Time;durP1;ratioP1;P1;durP2;ratioP2;P2;SDS_P1;SDS_P2;PMS_P1;PMS_P2;Temp;Humidity;BMP_temperature;BMP_pressure;BME280_temperature;BME280_humidity;BME280_pressure;Samples;Min_cycle;Max_cycle;Signal;HPM_P1;HPM_P2
2022/05/25 00:01:59;;;;;;;6.47;5.50;;;10.20;99.90;;;;;;5066172;28;20159;-87
2022/05/25 00:04:24;;;;;;;10.80;5.85;;;10.30;99.90;;;;;;5065190;28;20033;-85
2022/05/25 00:06:50;;;;;;;8.18;5.72;;;10.20;99.90;;;;;;5045937;28;20447;-84
2022/05/25 00:09:16;;;;;;;7.00;5.40;;;10.20;99.90;;;;;;5049609;28;20088;-84
2022/05/25 00:11:42;;;;;;;6.38;5.78;;;10.20;99.90;;;;;;5064757;28;20098;-84
2022/05/25 00:14:08;;;;;;;7.88;5.53;;;10.10;99.90;;;;;;5049111;28;20132;-84
2022/05/25 00:16:33;;;;;;;7.05;5.90;;;10.00;99.90;;;;;;5063682;28;20479;-84
2022/05/25 00:21:43;;;;;;;9.30;5.95;;;9.80;99.90;;;;;;5062136;28;20033;-84
2022/05/25 00:24:09;;;;;;;7.47;6.18;;;9.90;99.90;;;;;;5049345;28;20041;-84
2022/05/25 00:26:35;;;;;;;7.10;5.93;;;9.80;99.90;;;;;;5061733;28;20033;-84
2022/05/25 00:29:02;;;;;;;7.40;6.13;;;9.80;99.90;;;;;;5047347;28;20106;-85
2022/05/25 00:31:28;;;;;;;8.00;5.90;;;9.80;99.90;;;;;;5047987;28;20090;-84
2022/05/25 00:33:54;;;;;;;7.68;6.00;;;9.80;99.90;;;;;;5065688;28;20119;-83
2022/05/25 00:36:19;;;;;;;9.50;7.22;;;9.70;99.90;;;;;;5063989;28;20187;-82
2022/05/25 00:38:45;;;;;;;8.23;6.63;;;9.70;99.90;;;;;;5056464;28;20047;-82
2022/05/25 00:41:10;;;;;;;7.63;6.25;;;9.60;99.90;;;;;;5048930;28;20533;-83
2022/05/25 00:43:37;;;;;;;9.57;7.45;;;9.60;99.90;;;;;;5047222;28;20054;-84
2022/05/25 00:46:08;;;;;;;7.85;6.65;;;9.60;99.90;;;;;;5063775;28;20036;-84
2022/05/25 00:48:40;;;;;;;12.90;8.00;;;9.50;99.90;;;;;;5063331;28;20486;-84
2022/05/25 00:51:13;;;;;;;11.60;7.78;;;9.50;99.90;;;;;;5048201;28;20044;-84
2022/05/25 00:53:42;;;;;;;10.38;6.88;;;9.50;99.90;;;;;;5067722;28;20040;-85
2022/05/25 00:56:10;;;;;;;9.95;7.80;;;9.50;99.90;;;;;;5066747;28;20182;-85
2022/05/25 00:58:38;;;;;;;10.25;8.27;;;9.50;99.90;;;;;;5051439;28;20036;-84
2022/05/25 01:01:05;;;;;;;10.45;8.68;;;9.50;99.90;;;;;;5068082;28;20453;-85
2022/05/25 01:03:32;;;;;;;10.13;8.30;;;9.50;99.90;;;;;;5052058;28;20036;-84
2022/05/25 01:06:14;;;;;;;12.20;7.97;;;9.40;99.90;;;;;;5068794;28;20099;-84
2022/05/25 01:09:05;;;;;;;12.50;9.90;;;9.40;99.90;;;;;;5051709;28;20041;-84
2022/05/25 01:11:48;;;;;;;11.18;8.35;;;9.40;99.90;;;;;;5052384;28;20044;-84
2022/05/25 01:14:44;;;;;;;10.75;8.48;;;9.30;99.90;;;;;;5068844;28;20100;-84
2022/05/25 01:17:34;;;;;;;13.40;8.52;;;9.40;99.90;;;;;;5068356;28;20039;-83
2022/05/25 01:20:28;;;;;;;10.40;8.00;;;9.40;99.90;;;;;;5069265;28;20036;-82
2022/05/25 01:22:57;;;;;;;12.00;8.02;;;9.40;99.90;;;;;;5065799;28;20036;-82
2022/05/25 01:25:45;;;;;;;11.77;8.90;;;9.30;99.90;;;;;;5053391;28;20471;-82
2022/05/25 01:28:42;;;;;;;11.63;8.43;;;9.30;99.90;;;;;;5066207;28;20029;-82
2022/05/25 01:31:19;;;;;;;9.95;7.85;;;9.30;99.90;;;;;;5051100;28;20044;-82
2022/05/25 01:34:02;;;;;;;11.30;8.40;;;9.30;99.90;;;;;;5068161;28;20414;-82
2022/05/25 01:36:47;;;;;;;14.10;9.43;;;9.30;99.90;;;;;;5049093;28;20076;-83
2022/05/25 01:39:19;;;;;;;12.95;10.15;;;9.40;99.90;;;;;;5064770;28;20076;-82
2022/05/25 01:42:07;;;;;;;11.55;9.38;;;9.40;99.90;;;;;;5065556;28;20175;-83
2022/05/25 01:44:42;;;;;;;11.88;8.65;;;9.40;99.90;;;;;;5068860;28;20041;-81
2022/05/25 01:47:10;;;;;;;11.75;8.80;;;9.40;99.90;;;;;;5066351;28;20119;-81
2022/05/25 01:50:00;;;;;;;14.43;9.70;;;9.40;99.90;;;;;;5065472;28;20094;-83
2022/05/25 01:52:30;;;;;;;13.93;9.77;;;9.40;99.90;;;;;;5051905;28;20055;-82
2022/05/25 01:55:00;;;;;;;13.13;9.45;;;9.40;99.90;;;;;;5051571;28;20086;-83
2022/05/25 01:57:31;;;;;;;10.35;9.02;;;9.40;99.90;;;;;;5066928;28;20037;-82
2022/05/25 01:59:56;;;;;;;11.95;8.73;;;9.40;99.90;;;;;;5050151;28;20489;-82
2022/05/25 02:05:12;;;;;;;9.57;8.43;;;9.30;99.90;;;;;;5066849;28;20045;-84
2022/05/25 02:08:17;;;;;;;13.40;9.43;;;9.40;99.90;;;;;;5052016;28;21392;-83
2022/05/25 02:10:49;;;;;;;13.73;9.77;;;9.30;99.90;;;;;;5062703;28;20044;-83
2022/05/25 02:14:02;;;;;;;11.05;8.68;;;9.30;99.90;;;;;;5065242;28;20498;-82
2022/05/25 02:16:36;;;;;;;11.98;9.35;;;9.30;99.90;;;;;;5032405;28;20060;-83
2022/05/25 02:19:22;;;;;;;12.00;9.40;;;9.20;99.90;;;;;;5049535;28;20119;-83
2022/05/25 02:22:00;;;;;;;12.65;9.15;;;9.20;99.90;;;;;;5048922;28;20028;-82
2022/05/25 02:24:32;;;;;;;11.55;8.60;;;9.20;99.90;;;;;;5064851;28;20079;-83
2022/05/25 02:27:12;;;;;;;13.25;9.25;;;9.20;99.90;;;;;;5068666;28;20067;-81
2022/05/25 02:29:42;;;;;;;12.25;9.50;;;9.20;99.90;;;;;;5049987;28;20127;-82
2022/05/25 02:32:30;;;;;;;10.65;9.40;;;9.30;99.90;;;;;;5066399;28;20033;-83
2022/05/25 02:34:57;;;;;;;11.63;9.85;;;9.30;99.90;;;;;;5066717;28;20175;-82
2022/05/25 02:37:25;;;;;;;12.20;9.20;;;9.30;99.90;;;;;;5068062;28;20033;-82
2022/05/25 02:39:53;;;;;;;15.07;10.38;;;9.20;99.90;;;;;;5068057;28;20032;-81
2022/05/25 02:42:19;;;;;;;10.95;9.05;;;9.20;99.90;;;;;;5068931;28;20029;-82
2022/05/25 02:44:46;;;;;;;12.18;8.48;;;9.20;99.90;;;;;;5051479;28;20036;-81
2022/05/25 02:47:12;;;;;;;11.93;9.82;;;9.10;99.90;;;;;;5068716;28;20072;-82
2022/05/25 02:49:38;;;;;;;11.80;9.23;;;9.10;99.90;;;;;;5063672;28;20486;-82
2022/05/25 02:52:08;;;;;;;13.15;9.50;;;9.10;99.90;;;;;;5067546;28;20033;-82
2022/05/25 02:54:33;;;;;;;13.43;9.20;;;9.00;99.90;;;;;;5068017;28;20052;-82
2022/05/25 02:56:59;;;;;;;13.77;9.30;;;9.00;99.90;;;;;;5052282;28;20401;-84
2022/05/25 02:59:24;;;;;;;12.00;8.88;;;9.00;99.90;;;;;;5066336;28;20056;-81
2022/05/25 03:01:50;;;;;;;13.27;9.98;;;8.90;99.90;;;;;;5052010;28;20041;-81
2022/05/25 03:04:15;;;;;;;14.27;9.10;;;8.90;99.90;;;;;;5067990;28;20044;-81
2022/05/25 03:06:41;;;;;;;12.18;8.90;;;8.90;99.90;;;;;;5048577;28;20039;-81
2022/05/25 03:09:07;;;;;;;12.65;9.60;;;8.90;99.90;;;;;;5065876;28;20755;-83
2022/05/25 03:11:32;;;;;;;12.27;9.13;;;8.90;99.90;;;;;;5050467;28;21370;-81
2022/05/25 03:13:58;;;;;;;12.55;8.57;;;8.80;99.90;;;;;;5067705;28;20142;-81
2022/05/25 03:16:24;;;;;;;14.27;9.77;;;8.80;99.90;;;;;;5052986;28;20047;-81
2022/05/25 03:18:51;;;;;;;13.38;9.98;;;8.80;99.90;;;;;;5065869;28;20036;-80
2022/05/25 03:21:17;;;;;;;13.82;9.02;;;8.80;99.90;;;;;;5064360;28;20086;-81
2022/05/25 03:23:43;;;;;;;14.70;10.60;;;8.80;99.90;;;;;;5065291;28;20068;-81
2022/05/25 03:26:09;;;;;;;14.57;10.15;;;8.80;99.90;;;;;;5065696;28;20040;-81
2022/05/25 03:28:35;;;;;;;19.25;10.95;;;8.80;99.90;;;;;;5064777;28;20127;-81
2022/05/25 03:31:01;;;;;;;15.38;10.32;;;8.70;99.90;;;;;;5067514;28;20037;-80
2022/05/25 03:33:27;;;;;;;15.10;10.13;;;8.70;99.90;;;;;;5050184;28;20057;-83
2022/05/25 03:35:52;;;;;;;12.98;10.75;;;8.80;99.90;;;;;;5065727;28;20391;-81
2022/05/25 03:38:18;;;;;;;17.55;10.63;;;8.80;99.90;;;;;;5065732;28;20048;-81
2022/05/25 03:40:43;;;;;;;15.50;10.07;;;8.80;99.90;;;;;;5064737;28;20514;-81
2022/05/25 03:43:10;;;;;;;14.77;10.82;;;8.80;99.90;;;;;;5065392;28;20028;-81
2022/05/25 03:45:36;;;;;;;15.77;11.18;;;8.80;99.90;;;;;;5066617;28;20036;-81
2022/05/25 03:48:07;;;;;;;15.43;11.25;;;8.80;99.90;;;;;;5067993;28;20589;-81
2022/05/25 03:50:37;;;;;;;15.63;10.90;;;8.90;99.90;;;;;;5066716;28;20253;-80
2022/05/25 03:53:03;;;;;;;17.60;11.45;;;8.90;99.90;;;;;;5049349;28;20063;-81
2022/05/25 03:55:28;;;;;;;21.20;11.13;;;8.90;99.90;;;;;;5067374;28;20089;-81
2022/05/25 03:57:54;;;;;;;17.45;11.40;;;8.90;99.90;;;;;;5066320;28;20127;-80
2022/05/25 04:00:19;;;;;;;16.02;12.40;;;8.90;99.90;;;;;;5065759;28;20115;-80
2022/05/25 04:02:46;;;;;;;14.75;12.00;;;8.90;99.90;;;;;;5066890;28;20029;-82
2022/05/25 04:05:12;;;;;;;17.38;12.43;;;9.00;99.90;;;;;;5066811;28;20078;-79
2022/05/25 04:07:41;;;;;;;15.88;11.73;;;9.00;99.90;;;;;;5062732;28;20130;-79
2022/05/25 04:10:11;;;;;;;17.05;12.68;;;9.00;99.90;;;;;;5061932;28;20544;-80
2022/05/25 04:12:36;;;;;;;18.30;12.38;;;9.00;99.90;;;;;;5064894;28;20098;-80
2022/05/25 04:15:03;;;;;;;16.65;12.40;;;9.00;99.90;;;;;;5065786;28;20036;-80
2022/05/25 04:17:28;;;;;;;19.13;12.77;;;9.00;99.90;;;;;;5064065;28;20033;-80
2022/05/25 04:19:55;;;;;;;20.23;13.30;;;9.10;99.90;;;;;;5065421;28;20036;-80
2022/05/25 04:22:20;;;;;;;22.25;14.43;;;9.10;99.90;;;;;;5064239;28;20039;-82
2022/05/25 04:24:46;;;;;;;19.83;13.13;;;9.20;99.90;;;;;;5066549;28;20040;-80
2022/05/25 04:27:12;;;;;;;17.85;13.80;;;9.20;99.90;;;;;;5050284;28;20088;-80
2022/05/25 04:29:38;;;;;;;18.08;13.48;;;9.30;99.90;;;;;;5062771;28;20045;-81
2022/05/25 04:32:06;;;;;;;19.02;13.80;;;9.30;99.90;;;;;;5066489;28;20043;-80
2022/05/25 04:34:32;;;;;;;17.88;14.13;;;9.40;99.90;;;;;;5066354;28;20036;-80
2022/05/25 04:37:48;;;;;;;16.25;12.82;;;9.40;99.90;;;;;;5066474;28;20050;-80
2022/05/25 04:42:20;;;;;;;21.60;14.63;;;9.60;99.90;;;;;;5104170;28;20396;-79
2022/05/25 04:44:45;;;;;;;18.92;13.95;;;9.60;99.90;;;;;;5088972;28;20039;-79
2022/05/25 04:47:12;;;;;;;18.13;13.73;;;9.70;99.90;;;;;;5087222;28;20024;-78
2022/05/25 04:49:42;;;;;;;18.88;12.93;;;9.80;99.90;;;;;;5087997;28;20066;-80
2022/05/25 04:52:08;;;;;;;17.65;14.02;;;9.80;99.90;;;;;;5068102;28;20125;-79
2022/05/25 04:54:33;;;;;;;19.10;13.73;;;9.90;99.90;;;;;;5069491;28;20101;-78
2022/05/25 04:59:44;;;;;;;17.08;12.25;;;10.10;99.90;;;;;;5068260;28;20044;-80
2022/05/25 05:02:10;;;;;;;17.38;12.32;;;10.20;99.90;;;;;;5066768;28;20450;-79
2022/05/25 05:04:37;;;;;;;18.25;12.85;;;10.30;99.90;;;;;;5067619;28;20051;-79
2022/05/25 05:07:03;;;;;;;15.73;11.65;;;10.30;99.90;;;;;;5068756;28;20036;-78
2022/05/25 05:09:33;;;;;;;18.77;11.82;;;10.40;99.90;;;;;;5053329;28;20123;-79
2022/05/25 05:11:59;;;;;;;15.38;11.60;;;10.50;99.90;;;;;;5068367;28;20036;-80
2022/05/25 05:14:25;;;;;;;19.55;13.02;;;10.60;99.90;;;;;;5052754;28;20043;-78
2022/05/25 05:16:58;;;;;;;15.73;12.25;;;10.60;99.90;;;;;;5069346;28;20028;-79
2022/05/25 05:19:28;;;;;;;13.98;11.70;;;10.70;99.90;;;;;;5066089;28;20064;-79
2022/05/25 05:21:55;;;;;;;16.38;11.00;;;10.80;99.90;;;;;;5072435;28;20089;-79
2022/05/25 05:24:26;;;;;;;14.55;10.95;;;10.80;99.90;;;;;;5073284;28;20086;-79
2022/05/25 05:26:53;;;;;;;13.07;11.15;;;10.90;99.90;;;;;;5073507;28;20032;-79
2022/05/25 05:29:19;;;;;;;14.60;11.40;;;11.00;99.90;;;;;;5073523;28;20036;-79
2022/05/25 05:31:44;;;;;;;15.82;11.20;;;11.10;99.90;;;;;;5072606;28;20528;-79
2022/05/25 05:34:11;;;;;;;14.48;11.02;;;11.20;99.90;;;;;;5072645;28;20044;-79
2022/05/25 05:36:42;;;;;;;15.55;11.27;;;11.30;99.90;;;;;;5072307;28;20424;-79
2022/05/25 05:39:10;;;;;;;14.02;10.90;;;11.40;99.90;;;;;;5073726;28;20041;-79
2022/05/25 05:41:57;;;;;;;16.17;9.32;;;11.50;99.90;;;;;;5073142;28;20127;-79
2022/05/25 05:44:26;;;;;;;14.30;9.25;;;11.60;99.90;;;;;;5074004;28;20489;-78
2022/05/25 05:46:54;;;;;;;12.60;8.40;;;11.70;99.90;;;;;;5074165;28;20040;-79
2022/05/25 05:49:20;;;;;;;13.32;9.88;;;11.70;99.90;;;;;;5076647;28;20029;-79
2022/05/25 05:51:46;;;;;;;12.98;9.18;;;11.90;99.90;;;;;;5077592;28;20093;-79
2022/05/25 05:54:12;;;;;;;13.85;9.20;;;11.90;99.90;;;;;;5077769;28;20047;-79
2022/05/25 05:56:38;;;;;;;11.88;9.77;;;12.00;99.90;;;;;;5077123;28;20489;-80
2022/05/25 05:59:04;;;;;;;11.40;8.77;;;12.10;99.90;;;;;;5077170;28;20040;-79
2022/05/25 06:01:30;;;;;;;13.02;9.27;;;12.20;99.90;;;;;;5077563;28;20230;-79
2022/05/25 06:03:55;;;;;;;15.32;9.15;;;12.30;99.90;;;;;;5060271;28;20127;-80
2022/05/25 06:06:23;;;;;;;15.52;9.43;;;12.40;99.90;;;;;;5078513;28;20068;-79
2022/05/25 06:08:49;;;;;;;13.15;8.93;;;12.50;99.90;;;;;;5077202;28;20386;-79
2022/05/25 06:11:16;;;;;;;13.75;9.07;;;12.60;99.90;;;;;;5077303;28;20528;-79
2022/05/25 06:13:42;;;;;;;14.13;10.25;;;12.70;99.90;;;;;;5076972;28;20040;-79
2022/05/25 06:21:36;;;;;;;15.82;8.05;;;12.90;99.90;;;;;;5073411;28;20040;-80
2022/05/25 06:24:02;;;;;;;11.15;7.95;;;13.00;99.90;;;;;;5075194;28;20405;-79
2022/05/25 06:26:30;;;;;;;11.82;8.82;;;13.10;99.90;;;;;;5074730;28;20040;-79
2022/05/25 06:28:57;;;;;;;12.35;7.90;;;13.10;99.90;;;;;;5075645;28;20055;-79
2022/05/25 06:31:23;;;;;;;14.65;8.80;;;13.30;99.90;;;;;;5075899;28;20044;-80
2022/05/25 06:33:49;;;;;;;8.25;6.90;;;13.50;99.90;;;;;;5078994;28;20028;-80
2022/05/25 06:36:17;;;;;;;10.05;8.20;;;13.80;99.90;;;;;;5074452;28;20036;-80
2022/05/25 06:38:43;;;;;;;10.40;7.68;;;14.10;99.90;;;;;;5059730;28;20556;-80
2022/05/25 06:41:09;;;;;;;10.52;8.50;;;14.50;99.90;;;;;;5075091;28;20514;-80
2022/05/25 06:43:35;;;;;;;11.93;8.40;;;14.60;99.90;;;;;;5059667;28;20124;-80
2022/05/25 06:46:01;;;;;;;8.50;6.55;;;14.90;99.90;;;;;;5082755;28;20048;-81
2022/05/25 06:48:26;;;;;;;8.23;6.95;;;15.10;99.90;;;;;;5090943;28;20051;-80
2022/05/25 06:50:52;;;;;;;12.48;9.35;;;15.30;99.90;;;;;;5093588;28;20094;-81
2022/05/25 06:53:17;;;;;;;9.52;7.07;;;15.40;99.90;;;;;;5094682;28;20047;-80
2022/05/25 06:55:43;;;;;;;8.80;6.88;;;15.60;99.90;;;;;;5095102;28;20067;-81
2022/05/25 06:58:08;;;;;;;11.00;6.78;;;15.70;99.90;;;;;;5095342;28;20051;-80
2022/05/25 07:00:34;;;;;;;10.50;6.72;;;15.90;99.90;;;;;;5095362;28;20063;-79
2022/05/25 07:03:04;;;;;;;11.57;6.95;;;16.10;99.90;;;;;;5088738;28;20032;-81
2022/05/25 07:05:30;;;;;;;9.45;7.05;;;16.30;99.90;;;;;;5082654;28;20045;-80
2022/05/25 07:07:55;;;;;;;7.72;6.38;;;16.40;99.90;;;;;;5066177;28;20544;-80
2022/05/25 07:10:21;;;;;;;10.07;6.82;;;16.50;99.90;;;;;;5081283;28;20119;-80
2022/05/25 07:12:47;;;;;;;9.23;5.78;;;16.50;99.90;;;;;;5079386;28;20086;-80
2022/05/25 07:15:13;;;;;;;9.57;6.20;;;16.50;99.90;;;;;;5081697;28;20044;-80
2022/05/25 07:17:38;;;;;;;10.02;7.20;;;16.60;99.90;;;;;;5079773;28;20033;-80
2022/05/25 07:20:06;;;;;;;8.13;6.07;;;16.70;99.90;;;;;;5083008;28;20152;-80
2022/05/25 07:22:32;;;;;;;8.55;5.82;;;16.70;99.90;;;;;;5081683;28;20036;-80
2022/05/25 07:24:58;;;;;;;6.90;5.68;;;16.80;99.90;;;;;;5081363;28;20040;-80
2022/05/25 07:27:24;;;;;;;6.82;5.78;;;16.80;99.90;;;;;;5080843;28;20036;-80
2022/05/25 07:29:49;;;;;;;6.97;4.80;;;16.80;99.90;;;;;;5082101;28;20051;-80
2022/05/25 07:32:15;;;;;;;7.20;5.13;;;16.90;99.90;;;;;;5081770;28;20097;-79
2022/05/25 07:34:46;;;;;;;7.82;5.68;;;17.00;99.90;;;;;;5077174;28;20041;-79
2022/05/25 07:37:17;;;;;;;7.15;5.38;;;17.10;99.90;;;;;;5060913;28;20046;-79
2022/05/25 07:39:52;;;;;;;6.57;4.60;;;17.40;99.90;;;;;;5076460;28;20036;-79
2022/05/25 07:42:19;;;;;;;8.30;5.15;;;17.40;99.90;;;;;;5059439;28;20036;-80
2022/05/25 07:44:51;;;;;;;6.72;4.80;;;17.40;99.90;;;;;;5073937;28;20064;-79
2022/05/25 07:47:16;;;;;;;6.13;5.55;;;17.50;99.90;;;;;;5075793;28;20041;-79
2022/05/25 07:49:42;;;;;;;8.65;4.05;;;17.70;99.90;;;;;;5058227;28;20092;-79
2022/05/25 07:52:09;;;;;;;5.70;3.95;;;18.00;99.90;;;;;;5074646;28;20098;-79
2022/05/25 07:54:35;;;;;;;7.45;4.97;;;18.10;99.90;;;;;;5075425;28;20505;-79
2022/05/25 07:57:01;;;;;;;7.30;3.65;;;18.10;99.90;;;;;;5074994;28;20040;-79
2022/05/25 07:59:27;;;;;;;6.30;3.40;;;18.20;99.90;;;;;;5057091;28;20028;-79
2022/05/25 08:07:50;;;;;;;5.57;4.22;;;18.70;99.90;;;;;;5065397;28;20037;-79
2022/05/25 08:10:21;;;;;;;4.88;4.13;;;18.60;99.90;;;;;;5072840;28;20498;-79
2022/05/25 08:12:49;;;;;;;4.90;3.03;;;18.60;99.90;;;;;;5071581;28;20044;-79
2022/05/25 08:15:15;;;;;;;4.35;3.83;;;18.80;99.90;;;;;;5072480;28;20054;-79
2022/05/25 08:17:41;;;;;;;6.32;4.38;;;18.80;99.90;;;;;;5072986;28;20375;-79
2022/05/25 08:20:08;;;;;;;5.63;3.42;;;18.90;99.90;;;;;;5075191;28;20055;-79
2022/05/25 08:22:34;;;;;;;5.28;3.85;;;19.00;99.90;;;;;;5074291;28;20032;-79
2022/05/25 08:25:00;;;;;;;5.20;3.97;;;19.10;99.90;;;;;;5075350;28;20039;-79
2022/05/25 08:27:25;;;;;;;3.97;3.58;;;19.30;99.90;;;;;;5074499;28;20039;-79
2022/05/25 08:29:51;;;;;;;8.35;3.00;;;19.40;99.90;;;;;;5074308;28;20428;-79
2022/05/25 08:32:16;;;;;;;5.57;3.33;;;19.40;99.90;;;;;;5074252;28;20416;-79
2022/05/25 08:34:43;;;;;;;3.53;2.75;;;19.50;99.90;;;;;;5074431;28;20182;-79
2022/05/25 08:37:09;;;;;;;4.28;3.25;;;19.70;99.90;;;;;;5073865;28;20098;-78
2022/05/25 08:39:35;;;;;;;5.07;2.28;;;19.90;99.90;;;;;;5074460;28;20082;-78
2022/05/25 08:42:05;;;;;;;4.50;1.73;;;20.20;99.90;;;;;;5073389;28;20075;-79
2022/05/25 08:44:31;;;;;;;4.63;1.95;;;20.50;98.40;;;;;;5074960;28;20056;-78
2022/05/25 08:47:00;;;;;;;2.45;1.40;;;20.80;97.90;;;;;;5074609;28;20040;-78
2022/05/25 08:49:29;;;;;;;4.38;2.15;;;20.90;95.70;;;;;;5073921;28;20335;-78
2022/05/25 08:51:57;;;;;;;2.55;2.03;;;21.00;95.40;;;;;;5057135;28;20048;-78
2022/05/25 08:54:25;;;;;;;2.90;1.48;;;21.20;95.80;;;;;;5074094;28;20047;-78
2022/05/25 08:57:16;;;;;;;2.00;1.65;;;21.10;93.40;;;;;;5073411;28;20051;-79
2022/05/25 08:59:47;;;;;;;2.75;1.17;;;21.00;90.90;;;;;;5057724;28;20051;-78
2022/05/25 09:02:34;;;;;;;2.03;1.00;;;21.20;91.90;;;;;;5056777;28;20047;-79
2022/05/25 09:05:24;;;;;;;3.75;1.58;;;21.20;87.10;;;;;;5074028;28;20040;-79
2022/05/25 09:08:15;;;;;;;3.00;1.50;;;21.10;88.50;;;;;;5073987;28;20085;-79
2022/05/25 09:10:53;;;;;;;3.40;1.23;;;21.50;87.90;;;;;;5073705;28;20036;-78
2022/05/25 09:13:27;;;;;;;2.42;1.15;;;22.00;83.00;;;;;;5077558;28;20051;-78
2022/05/25 09:18:48;;;;;;;3.15;1.15;;;22.30;84.50;;;;;;5078505;28;20409;-79
2022/05/25 09:21:19;;;;;;;2.20;1.50;;;22.30;84.20;;;;;;5078323;28;20110;-79
2022/05/25 09:23:44;;;;;;;2.42;1.27;;;21.90;84.30;;;;;;5076677;28;20083;-79
2022/05/25 09:26:13;;;;;;;4.18;1.45;;;21.70;84.50;;;;;;5060854;28;20071;-78
2022/05/25 09:28:42;;;;;;;2.13;1.05;;;21.60;84.40;;;;;;5077214;28;20040;-79
2022/05/25 09:31:11;;;;;;;2.08;1.38;;;21.40;82.50;;;;;;5077246;28;20055;-78
2022/05/25 09:33:49;;;;;;;3.63;1.67;;;21.10;82.70;;;;;;5077056;28;20048;-78
2022/05/25 09:36:33;;;;;;;4.72;1.25;;;20.80;82.50;;;;;;5077182;28;20130;-78
2022/05/25 09:39:11;;;;;;;1.92;0.73;;;20.70;84.60;;;;;;5077210;28;20048;-79
2022/05/25 09:41:41;;;;;;;4.35;1.48;;;20.60;85.70;;;;;;5076304;28;20036;-79
2022/05/25 09:44:10;;;;;;;1.88;1.30;;;20.80;85.20;;;;;;5076937;28;20043;-78
2022/05/25 09:46:41;;;;;;;3.35;1.48;;;20.90;81.60;;;;;;5076736;28;20452;-78
2022/05/25 09:49:11;;;;;;;1.23;0.70;;;20.90;80.70;;;;;;5076727;28;20117;-78
2022/05/25 09:51:46;;;;;;;2.40;1.70;;;20.80;79.60;;;;;;5076486;28;20036;-78
2022/05/25 09:54:18;;;;;;;2.90;1.00;;;20.30;79.90;;;;;;5059658;28;20043;-78
2022/05/25 09:56:50;;;;;;;2.92;1.25;;;20.20;83.00;;;;;;5072751;28;20093;-79
2022/05/25 09:59:28;;;;;;;3.88;1.20;;;20.10;82.30;;;;;;5072757;28;20115;-78
2022/05/25 10:01:55;;;;;;;4.32;1.38;;;20.10;81.70;;;;;;5072857;28;20148;-78
2022/05/25 10:04:52;;;;;;;2.25;0.80;;;20.00;82.50;;;;;;5073534;28;20094;-78
2022/05/25 10:07:29;;;;;;;2.70;1.10;;;20.10;78.80;;;;;;5073286;28;20043;-78
2022/05/25 10:09:59;;;;;;;2.78;0.88;;;20.10;79.70;;;;;;5073407;28;20075;-78
2022/05/25 10:12:42;;;;;;;3.08;1.45;;;20.20;80.40;;;;;;5072521;28;20098;-78
2022/05/25 10:15:11;;;;;;;1.90;1.13;;;20.30;80.10;;;;;;5072853;28;20044;-79
2022/05/25 10:17:43;;;;;;;4.63;1.42;;;20.20;82.00;;;;;;5073003;28;20044;-78
2022/05/25 10:20:20;;;;;;;3.13;1.02;;;20.40;83.30;;;;;;5072987;28;20040;-78
2022/05/25 10:22:48;;;;;;;2.50;0.68;;;21.00;79.70;;;;;;5072583;28;20106;-79
2022/05/25 10:25:26;;;;;;;1.52;1.00;;;21.40;81.40;;;;;;5073110;28;20037;-79
2022/05/25 10:27:52;;;;;;;1.70;0.93;;;21.70;77.80;;;;;;5076632;28;20036;-78
2022/05/25 10:39:23;;;;;;;1.90;1.13;;;21.00;76.80;;;;;;5076040;28;20079;-79
2022/05/25 10:42:09;;;;;;;1.30;1.20;;;20.70;77.90;;;;;;5059783;28;20101;-78
2022/05/25 10:44:57;;;;;;;4.10;2.38;;;20.50;77.70;;;;;;5076506;28;20130;-79
2022/05/25 10:47:28;;;;;;;3.00;1.90;;;20.30;78.10;;;;;;5076065;28;20040;-78
2022/05/25 10:49:53;;;;;;;2.83;1.52;;;19.90;79.10;;;;;;5075455;28;20500;-78
2022/05/25 10:52:40;;;;;;;1.92;1.23;;;19.50;79.20;;;;;;5075559;28;20051;-79
2022/05/25 10:55:07;;;;;;;1.25;0.90;;;19.50;81.00;;;;;;5076011;28;20074;-79
2022/05/25 10:58:14;;;;;;;1.70;0.73;;;20.10;82.00;;;;;;5076731;28;20058;-79
2022/05/25 11:00:57;;;;;;;2.40;1.00;;;20.90;77.70;;;;;;5039484;28;20059;-78
2022/05/25 11:03:32;;;;;;;2.15;0.90;;;21.90;76.80;;;;;;5076373;28;20043;-79
2022/05/25 11:06:23;;;;;;;3.90;1.33;;;22.40;75.90;;;;;;5077289;28;20486;-79
2022/05/25 11:09:10;;;;;;;3.50;1.45;;;22.50;74.90;;;;;;5076884;28;20417;-79
2022/05/25 11:11:51;;;;;;;2.80;1.90;;;22.50;71.10;;;;;;5076616;28;20047;-78
2022/05/25 11:14:26;;;;;;;5.97;2.72;;;22.10;72.20;;;;;;5076951;28;20047;-78
2022/05/25 11:17:15;;;;;;;3.25;1.85;;;22.10;75.30;;;;;;5076644;28;20036;-79
2022/05/25 11:19:59;;;;;;;2.03;1.23;;;22.10;74.60;;;;;;5080624;28;20085;-78
2022/05/25 11:22:27;;;;;;;2.75;2.00;;;22.10;75.40;;;;;;5081263;28;20055;-78
2022/05/25 11:25:15;;;;;;;2.97;1.42;;;21.90;74.90;;;;;;5079662;28;20478;-79
2022/05/25 11:28:17;;;;;;;3.00;1.45;;;21.60;74.00;;;;;;5083013;28;20040;-79
2022/05/25 11:30:55;;;;;;;2.83;1.00;;;21.30;72.90;;;;;;5078493;28;20119;-78
2022/05/25 11:33:39;;;;;;;1.65;1.27;;;20.90;72.20;;;;;;5076329;28;20040;-79
2022/05/25 11:36:30;;;;;;;3.15;1.83;;;20.70;75.40;;;;;;5073352;28;20044;-78
2022/05/25 11:39:10;;;;;;;0.90;0.50;;;20.90;75.70;;;;;;5074568;28;20048;-79
2022/05/25 11:42:27;;;;;;;1.55;0.40;;;21.10;69.80;;;;;;5077027;28;20494;-78
2022/05/25 11:45:01;;;;;;;1.23;0.93;;;21.10;65.60;;;;;;5019759;28;20052;-78
2022/05/25 11:47:45;;;;;;;1.75;0.77;;;21.20;70.00;;;;;;5059153;28;20115;-78
2022/05/25 11:50:25;;;;;;;2.75;0.70;;;21.20;66.50;;;;;;5059324;28;20040;-78
2022/05/25 11:53:15;;;;;;;2.17;1.10;;;21.20;67.60;;;;;;5059904;28;20048;-78
2022/05/25 11:56:04;;;;;;;2.15;0.80;;;21.10;65.40;;;;;;5058288;28;20043;-78
2022/05/25 11:58:52;;;;;;;5.65;0.90;;;21.00;66.80;;;;;;5061303;28;20395;-78
2022/05/25 12:01:17;;;;;;;3.15;1.65;;;20.90;66.70;;;;;;5072073;28;20044;-78
2022/05/25 12:03:55;;;;;;;3.42;1.40;;;20.60;69.10;;;;;;5074410;28;20047;-79
2022/05/25 12:06:52;;;;;;;1.60;0.80;;;20.40;68.80;;;;;;5057162;28;20053;-78
2022/05/25 12:09:46;;;;;;;2.45;1.50;;;20.20;69.70;;;;;;5071849;28;20070;-78
2022/05/25 12:12:34;;;;;;;4.30;1.60;;;20.00;71.10;;;;;;5076782;28;20047;-78
2022/05/25 12:15:18;;;;;;;2.15;1.75;;;19.70;71.60;;;;;;5074061;28;20115;-78
2022/05/25 12:18:07;;;;;;;2.50;1.55;;;19.30;71.20;;;;;;5074422;28;20046;-78
2022/05/25 12:21:02;;;;;;;3.33;1.48;;;18.80;71.90;;;;;;5074231;28;20055;-78
2022/05/25 12:23:35;;;;;;;6.93;2.40;;;18.30;72.40;;;;;;5064425;28;20044;-78
2022/05/25 12:26:12;;;;;;;4.53;1.73;;;17.90;76.30;;;;;;5077178;28;20093;-80
2022/05/25 12:28:40;;;;;;;4.63;2.60;;;17.20;80.70;;;;;;5083824;28;20032;-81
2022/05/25 12:31:13;;;;;;;6.70;2.90;;;16.50;89.30;;;;;;5079134;28;20057;-82
2022/05/25 12:33:41;;;;;;;6.05;2.70;;;15.80;96.60;;;;;;5081489;28;20044;-82
2022/05/25 12:36:10;;;;;;;6.07;3.60;;;15.60;99.90;;;;;;5083696;28;20043;-82
2022/05/25 12:38:37;;;;;;;5.25;3.55;;;15.80;99.90;;;;;;5085063;28;20048;-81
2022/05/25 12:41:28;;;;;;;390.10;275.63;;;16.10;99.90;;;;;;5085951;28;20046;-81
2022/05/25 12:48:30;;;;;;;59.75;41.85;;;16.70;99.90;;;;;;5081881;28;20025;-80
2022/05/25 12:49:45;;;;;;;60.67;51.05;;;18.30;99.90;;;;;;5082889;28;20051;-79
2022/05/25 12:52:38;;;;;;;8.20;6.63;;;18.80;99.90;;;;;;5082433;28;20079;-79
2022/05/25 12:55:13;;;;;;;6.90;4.47;;;19.10;99.90;;;;;;5081187;28;20083;-79
2022/05/25 12:57:50;;;;;;;6.35;4.63;;;19.30;99.90;;;;;;5079372;28;20040;-79
2022/05/25 13:00:21;;;;;;;6.00;4.10;;;19.50;99.90;;;;;;5078363;28;20127;-78
2022/05/25 13:02:47;;;;;;;5.35;4.85;;;19.50;99.90;;;;;;5077609;28;20514;-78
2022/05/25 13:05:47;;;;;;;27.88;20.83;;;19.40;99.90;;;;;;5077156;28;20070;-78
2022/05/25 13:08:47;;;;;;;21.27;14.75;;;19.30;99.90;;;;;;5077092;28;20109;-78
2022/05/25 13:11:33;;;;;;;9.75;6.90;;;18.90;99.90;;;;;;5077398;28;20119;-78
2022/05/25 13:14:16;;;;;;;22.67;19.42;;;18.40;99.90;;;;;;5077228;28;20044;-78
2022/05/25 13:16:51;;;;;;;4.50;4.00;;;18.00;99.90;;;;;;5077917;28;20537;-78
2022/05/25 13:19:32;;;;;;;6.28;3.75;;;17.90;99.90;;;;;;5077528;28;20094;-78
2022/05/25 13:22:04;;;;;;;5.40;3.53;;;18.40;99.90;;;;;;5073475;28;20481;-78
2022/05/25 13:25:03;;;;;;;4.20;2.35;;;19.10;99.90;;;;;;5058299;28;20037;-78
2022/05/25 13:27:53;;;;;;;3.65;1.63;;;19.60;99.90;;;;;;5075027;28;20120;-78
2022/05/25 13:30:46;;;;;;;4.70;1.63;;;20.00;99.90;;;;;;5074453;28;20043;-78
2022/05/25 13:33:25;;;;;;;2.92;1.25;;;20.20;98.10;;;;;;5075477;28;20441;-78
2022/05/25 13:35:57;;;;;;;3.13;0.73;;;20.30;97.10;;;;;;5077071;28;20126;-78
2022/05/25 13:38:37;;;;;;;4.32;0.57;;;20.20;97.10;;;;;;5094872;28;20036;-78
2022/05/25 13:41:22;;;;;;;5.45;0.85;;;20.00;95.40;;;;;;5094780;28;20415;-78
2022/05/25 13:44:00;;;;;;;3.20;0.40;;;19.70;95.10;;;;;;5076490;28;20048;-78
2022/05/25 13:46:39;;;;;;;2.30;0.60;;;19.50;94.00;;;;;;5077169;28;20048;-78
2022/05/25 13:49:07;;;;;;;4.60;0.32;;;19.50;93.70;;;;;;5076788;28;20541;-78